Minot, MA (02055)

11:58 AM EDT on October 17, 2019 (GMT -0400)
Gannett Corners | | Change Station
Active Advisory: Wind Advisory Active Notice: Public Information Statement

Elev 23 ft 42.24 °N, 70.79 °W | Updated 8 seconds ago

Overcast
Overcast
54.3 °F
Feels Like 54.3 °F
N
8.9
Wind Variable Wind from West
Gusts 13.6 mph

Today
High -- | Low -- °F
--% Chance of Precip.
Yesterday
High -- | Low -- °F
Precip. -- in
Pressure 28.99 in
Visibility 10.0 miles
Clouds Overcast 3400 ft
Dew Point 43 °F
Humidity 65%
Rainfall 0.75 in
Snow Depth Not available.
6:57 AM 5:58 PM
Waning Gibbous, 87% visible
METAR KBOS 171554Z 24025G35KT 10SM OVC034 13/05 A2899 RMK AO2 PK WND 22041/1504 SLP816 T01280050 $
Pressure 28.99 in
Visibility 10.0 miles
Clouds Overcast 3400 ft
Dew Point 43 °F
Humidity 65%
Rainfall 0.75 in
Snow Depth Not available.
6:57 AM 5:58 PM
Waning Gibbous, 87% visible
METAR KBOS 171554Z 24025G35KT 10SM OVC034 13/05 A2899 RMK AO2 PK WND 22041/1504 SLP816 T01280050 $

Get Your Daily Forecast Email!

Thanks for signing up!

Be on the lookout for a verification email in your inbox.

You'll start receiving severe weather alerts in your inbox..

×

10-Day Weather Forecast

Almanac

Astronomy

Oct. 17, 2019 Rise Set
Actual Time
Civil Twilight
Nautical Twilight
Astronomical Twilight
Moon
Length of Visible Light
Length of Day
Tomorrow will be .
, % of the Moon is Illuminated

Today's Extremes

State Highs State Lows

Community

WunderPhotos

Category 6

Welcome to Category 6. This is the collective home for Weather Underground's featured writeups by Dr. Jeff Masters (right), Bob Henson (left), Chris Burt, and other regular contributors.

Nearby

Air Quality

  Air Quality AQ Index Pollutant
Not available.

Snow Depth

Station Depth Elevation

Earthquake Activity

City Distance Mag. Time & Date
Minimum magnitude displayed is 2.5.

Coastal Water Temperatures

Place Temperature

Stations

Nearby Weather Stations

Station Location Temp. Windchill Dew Point Humidity Wind Precip. Elev Updated Type
                   

Watches & Warnings

Wind Advisory
Issued: 8:14 AM EDT Oct. 17, 2019 – National Weather Service

... Wind Advisory remains in effect until 6 PM EDT this evening...

* what... southwest winds 20 to 30 mph with gusts between 45 and 55
mph expected.

* Where... all of southern New England northwest of the Cape Cod
canal.

* When... until 6 PM EDT this evening.

* Impacts... the potential will continue for scattered tree damage
as well as scattered power outages. Travel will be difficult,
especially for high profile vehicles.

Precautionary/preparedness actions...

Use extra caution when driving, especially if operating a high
profile vehicle. Secure outdoor objects.